Time;durP1;ratioP1;P1;durP2;ratioP2;P2;SDS_P1;SDS_P2;PMS_P1;PMS_P2;Temp;Humidity;BMP_temperature;BMP_pressure;BME280_temperature;BME280_humidity;BME280_pressure;Samples;Min_cycle;Max_cycle;Signal;HPM_P1;HPM_P2
2022/12/21 00:02:19;;;;;;;50.53;39.40;;;;;;;8.39;100.00;100981.94;5032002;28;20025;-78
2022/12/21 00:04:46;;;;;;;50.50;37.45;;;;;;;8.39;100.00;100974.06;5014931;28;20032;-78
2022/12/21 00:07:11;;;;;;;51.95;37.67;;;;;;;8.33;100.00;100974.41;5025071;28;20386;-78
2022/12/21 00:09:37;;;;;;;52.40;38.42;;;;;;;8.32;100.00;100980.59;5014209;28;20029;-78
2022/12/21 00:12:03;;;;;;;56.75;39.95;;;;;;;8.33;100.00;100971.78;5032638;28;20083;-78
2022/12/21 00:14:28;;;;;;;56.33;39.33;;;;;;;8.30;100.00;100970.22;5031861;28;20153;-78
2022/12/21 00:16:53;;;;;;;51.92;38.50;;;;;;;8.30;100.00;100974.59;5014895;28;20022;-77
2022/12/21 00:19:19;;;;;;;56.20;40.25;;;;;;;8.28;100.00;100981.72;5031935;28;20071;-78
2022/12/21 00:21:44;;;;;;;56.22;40.08;;;;;;;8.25;100.00;100971.44;5031566;28;20029;-78
2022/12/21 00:24:10;;;;;;;58.53;39.00;;;;;;;8.27;100.00;100974.81;5011967;28;20068;-78
2022/12/21 00:26:44;;;;;;;52.90;38.22;;;;;;;8.22;100.00;100982.13;5014927;28;20436;-78
2022/12/21 00:29:12;;;;;;;51.60;38.35;;;;;;;8.24;100.00;100983.69;5030873;28;20076;-78
2022/12/21 00:31:39;;;;;;;58.65;38.95;;;;;;;8.19;100.00;100977.91;5023861;28;20046;-78
2022/12/21 00:34:36;;;;;;;54.90;38.58;;;;;;;8.22;100.00;100982.13;5022335;28;20033;-78
2022/12/21 00:37:03;;;;;;;59.13;39.85;;;;;;;8.20;100.00;100982.22;5029919;28;20589;-78
2022/12/21 00:39:28;;;;;;;61.17;40.92;;;;;;;8.20;100.00;100971.72;5029457;28;20529;-79
2022/12/21 00:41:54;;;;;;;56.72;41.08;;;;;;;8.22;100.00;100976.88;5010549;28;20109;-78
2022/12/21 00:44:19;;;;;;;57.50;39.53;;;;;;;8.20;100.00;100976.13;5015076;28;20026;-78
2022/12/21 00:46:47;;;;;;;52.72;40.28;;;;;;;8.21;100.00;100981.28;5032279;28;20120;-78
2022/12/21 00:49:16;;;;;;;62.13;43.88;;;;;;;8.20;100.00;100984.00;5013963;28;20021;-78
2022/12/21 00:51:42;;;;;;;69.05;44.60;;;;;;;8.21;100.00;100983.06;5012847;28;20505;-78
2022/12/21 00:54:31;;;;;;;73.00;46.65;;;;;;;8.17;100.00;100982.41;5014637;28;20021;-79
2022/12/21 00:56:58;;;;;;;65.63;44.97;;;;;;;8.19;100.00;100983.16;5008822;28;20037;-78
2022/12/21 00:59:24;;;;;;;68.53;46.63;;;;;;;8.18;100.00;100984.09;5023430;28;20022;-78
2022/12/21 01:02:05;;;;;;;74.90;46.75;;;;;;;8.18;100.00;100990.16;5029994;28;20040;-78
2022/12/21 01:04:30;;;;;;;66.55;45.65;;;;;;;8.18;100.00;100984.09;5030749;28;20055;-78
2022/12/21 01:06:55;;;;;;;69.30;47.45;;;;;;;8.18;100.00;100990.16;5032107;28;20057;-78
2022/12/21 01:09:20;;;;;;;70.68;45.03;;;;;;;8.17;100.00;100998.97;5032332;28;20096;-78
2022/12/21 01:11:56;;;;;;;71.32;47.50;;;;;;;8.18;100.00;101000.66;5032066;28;20424;-79
2022/12/21 01:14:21;;;;;;;78.78;48.05;;;;;;;8.20;100.00;101002.34;5031253;28;20393;-78
2022/12/21 01:16:47;;;;;;;70.70;48.03;;;;;;;8.20;100.00;100997.09;5023660;28;20030;-78
2022/12/21 01:19:12;;;;;;;84.00;48.03;;;;;;;8.18;100.00;101005.88;5031744;28;20022;-78
2022/12/21 01:21:41;;;;;;;70.80;46.58;;;;;;;8.18;100.00;101011.13;5032490;28;20256;-78
2022/12/21 01:24:11;;;;;;;69.22;47.38;;;;;;;8.21;100.00;101004.00;5013075;28;20032;-78
2022/12/21 01:26:36;;;;;;;85.97;48.63;;;;;;;8.17;100.00;101004.22;5029579;28;20025;-78
2022/12/21 01:29:05;;;;;;;77.47;47.90;;;;;;;8.18;100.00;100995.41;5013298;28;20025;-78
2022/12/21 01:31:30;;;;;;;76.80;47.75;;;;;;;8.16;100.00;101002.53;5011917;28;20406;-78
2022/12/21 01:34:00;;;;;;;73.50;46.75;;;;;;;8.13;100.00;101007.97;5005944;28;20065;-78
2022/12/21 01:36:35;;;;;;;72.07;46.53;;;;;;;8.14;100.00;101025.38;5014015;28;20029;-78
2022/12/21 01:39:00;;;;;;;72.18;45.47;;;;;;;8.10;100.00;101029.09;5029285;28;20425;-78
2022/12/21 01:41:27;;;;;;;72.13;46.53;;;;;;;8.10;100.00;101030.88;5012118;28;20025;-78
2022/12/21 01:44:01;;;;;;;72.10;47.00;;;;;;;8.10;100.00;101033.50;5030473;28;20025;-78
2022/12/21 01:46:33;;;;;;;69.75;44.38;;;;;;;8.08;100.00;101030.13;5029762;28;20037;-78
2022/12/21 01:49:10;;;;;;;79.00;47.65;;;;;;;8.08;100.00;101028.38;5031161;28;20116;-78
2022/12/21 01:51:37;;;;;;;89.75;49.88;;;;;;;8.07;100.00;101031.91;5026725;28;20021;-79
2022/12/21 01:54:25;;;;;;;80.28;48.40;;;;;;;8.08;100.00;101024.91;5027802;28;20033;-79
2022/12/21 01:56:56;;;;;;;96.75;51.47;;;;;;;8.04;100.00;101013.75;5029400;28;20112;-78
2022/12/21 01:59:29;;;;;;;81.20;48.17;;;;;;;8.04;100.00;101024.25;5011994;28;20033;-78
2022/12/21 02:01:57;;;;;;;82.22;49.00;;;;;;;8.02;100.00;101012.19;5030189;28;20055;-78
2022/12/21 02:04:23;;;;;;;77.03;48.85;;;;;;;8.02;100.00;101010.41;5010778;28;20036;-77
2022/12/21 02:06:54;;;;;;;87.55;50.25;;;;;;;8.03;100.00;101011.25;5026835;28;20025;-77
2022/12/21 02:09:20;;;;;;;72.82;48.45;;;;;;;8.03;100.00;101014.69;5015556;28;20083;-79
2022/12/21 02:11:47;;;;;;;81.45;49.30;;;;;;;8.02;100.00;101007.78;5030147;28;20036;-77
2022/12/21 02:14:15;;;;;;;81.55;48.72;;;;;;;8.03;100.00;101008.63;5027285;28;20028;-77
2022/12/21 02:17:02;;;;;;;90.88;50.60;;;;;;;8.06;100.00;101014.50;5030583;28;20037;-77
2022/12/21 02:19:49;;;;;;;92.35;49.45;;;;;;;8.00;100.00;101017.47;5030248;28;20055;-77
2022/12/21 02:22:26;;;;;;;77.50;48.20;;;;;;;7.99;100.00;101010.56;5030860;28;20036;-77
2022/12/21 02:25:19;;;;;;;81.78;47.75;;;;;;;7.98;100.00;101008.88;5023711;28;20029;-77
2022/12/21 02:28:21;;;;;;;76.20;46.05;;;;;;;8.04;100.00;101008.53;5011252;28;20053;-78
2022/12/21 02:31:14;;;;;;;74.90;47.05;;;;;;;8.03;100.00;101003.38;5013540;28;20049;-78
2022/12/21 02:34:00;;;;;;;85.80;50.08;;;;;;;7.98;100.00;101010.66;5012433;28;20042;-78
2022/12/21 02:36:35;;;;;;;84.22;48.85;;;;;;;7.95;100.00;101006.44;5030040;28;20029;-78
2022/12/21 02:39:38;;;;;;;75.55;48.70;;;;;;;8.00;100.00;101006.16;5025738;28;20029;-78
2022/12/21 02:44:12;;;;;;;80.22;49.22;;;;;;;7.96;100.00;101015.13;5014153;28;20040;-78
2022/12/21 02:45:19;;;;;;;75.70;49.15;;;;;;;7.98;100.00;101010.66;5010493;28;20033;-78
2022/12/21 02:47:54;;;;;;;80.60;49.90;;;;;;;7.96;100.00;101000.25;5022146;28;20029;-78
2022/12/21 02:50:30;;;;;;;78.68;51.00;;;;;;;7.99;100.00;100994.84;5027169;28;20035;-77
2022/12/21 02:53:03;;;;;;;82.78;50.33;;;;;;;7.97;100.00;100999.31;5011794;28;20057;-78
2022/12/21 02:55:29;;;;;;;88.53;50.90;;;;;;;7.96;100.00;100995.03;5028304;28;20047;-78
2022/12/21 02:58:13;;;;;;;84.03;50.55;;;;;;;7.98;100.00;100997.53;5027671;28;20473;-78
2022/12/21 03:01:17;;;;;;;98.03;52.50;;;;;;;7.98;100.00;100998.38;5029549;28;20037;-78
2022/12/21 03:04:00;;;;;;;88.93;52.97;;;;;;;7.98;100.00;101008.03;5015771;28;20376;-78
2022/12/21 03:06:41;;;;;;;90.43;53.10;;;;;;;7.97;100.00;101003.72;5027431;28;20116;-78
2022/12/21 03:09:27;;;;;;;79.68;51.53;;;;;;;7.95;100.00;100993.34;4997233;28;20088;-77
2022/12/21 03:12:17;;;;;;;83.63;52.28;;;;;;;7.97;100.00;100994.09;5026579;28;20037;-78
2022/12/21 03:14:52;;;;;;;97.50;53.45;;;;;;;7.97;100.00;100991.47;4996839;28;20367;-78
2022/12/21 03:17:47;;;;;;;82.55;52.05;;;;;;;7.97;100.00;100985.38;5027440;28;20055;-78
2022/12/21 03:20:51;;;;;;;82.07;51.67;;;;;;;7.96;100.00;100992.41;5012548;28;20478;-77
2022/12/21 03:23:42;;;;;;;;;;;;;;;8.06;100.00;100985.69;5030434;28;20080;-79
2022/12/21 03:26:21;;;;;;;89.57;52.28;;;;;;;7.92;100.00;100984.81;5029593;28;19931;-78
2022/12/21 03:28:48;;;;;;;83.20;53.33;;;;;;;7.90;100.00;100979.69;5029945;28;20405;-78
2022/12/21 03:31:20;;;;;;;81.20;52.55;;;;;;;7.92;100.00;100969.09;5009231;28;20053;-77
2022/12/21 03:34:07;;;;;;;83.25;52.53;;;;;;;7.93;100.00;100974.25;5011457;28;20044;-78
2022/12/21 03:37:05;;;;;;;87.45;52.83;;;;;;;7.94;100.00;100989.03;5030430;28;20049;-78
2022/12/21 03:39:35;;;;;;;91.18;52.92;;;;;;;7.85;100.00;100989.59;5024127;28;20041;-77
2022/12/21 03:42:23;;;;;;;92.88;52.38;;;;;;;7.89;100.00;100993.72;4992868;28;20482;-77
2022/12/21 03:45:06;;;;;;;77.47;51.42;;;;;;;7.89;100.00;100982.38;5003586;28;20103;-78
2022/12/21 03:47:41;;;;;;;94.28;52.13;;;;;;;7.84;100.00;100991.38;5009999;28;20069;-79
2022/12/21 03:50:14;;;;;;;78.82;51.53;;;;;;;7.86;100.00;100984.25;5023982;28;20033;-77
2022/12/21 03:52:46;;;;;;;78.80;50.97;;;;;;;7.88;100.00;100980.72;5029795;28;20390;-77
2022/12/21 03:55:17;;;;;;;81.30;52.67;;;;;;;7.85;100.00;100982.59;5028954;28;20029;-79
2022/12/21 03:57:43;;;;;;;98.90;54.08;;;;;;;7.84;100.00;100987.91;5019455;28;20394;-79
2022/12/21 04:00:11;;;;;;;90.32;52.03;;;;;;;7.86;100.00;100988.66;5031680;28;20044;-77
2022/12/21 04:02:55;;;;;;;80.07;50.30;;;;;;;7.86;100.00;100986.03;5032287;28;20029;-77
2022/12/21 04:05:26;;;;;;;77.18;48.17;;;;;;;7.85;100.00;100981.75;5025956;28;20075;-77
2022/12/21 04:07:53;;;;;;;68.88;45.10;;;;;;;7.82;100.00;100981.94;5015780;28;20083;-79
2022/12/21 04:10:23;;;;;;;71.82;44.30;;;;;;;7.80;100.00;100975.94;5032078;28;20115;-77
2022/12/21 04:12:48;;;;;;;60.25;41.08;;;;;;;7.77;100.00;100973.50;5031424;28;20033;-77
2022/12/21 04:15:23;;;;;;;62.17;40.20;;;;;;;7.73;100.00;100970.22;5031320;28;20028;-80
2022/12/21 04:17:50;;;;;;;60.20;40.70;;;;;;;7.73;100.00;100975.47;5033166;28;20104;-77
2022/12/21 04:20:25;;;;;;;63.70;40.00;;;;;;;7.71;100.00;100973.88;5031429;28;20033;-80
2022/12/21 04:28:24;;;;;;;55.85;37.25;;;;;;;7.66;100.00;100975.94;5030912;28;20040;-77
2022/12/21 04:30:50;;;;;;;55.60;35.92;;;;;;;7.64;100.00;100977.81;5032333;28;20144;-77
2022/12/21 04:33:21;;;;;;;51.75;35.50;;;;;;;7.64;100.00;100988.28;5013747;28;20049;-80
2022/12/21 04:38:43;;;;;;;47.42;33.00;;;;;;;7.60;100.00;100974.50;5023405;28;20095;-79
2022/12/21 04:41:09;;;;;;;48.45;33.47;;;;;;;7.58;100.00;100957.19;5019555;28;20037;-77
2022/12/21 04:43:39;;;;;;;45.85;33.10;;;;;;;7.57;100.00;100966.81;5030391;28;20033;-79
2022/12/21 04:46:11;;;;;;;47.17;31.75;;;;;;;7.57;100.00;100961.59;5030171;28;20091;-77
2022/12/21 04:48:37;;;;;;;45.22;31.80;;;;;;;7.53;100.00;100970.56;5032209;28;20028;-79
2022/12/21 04:51:08;;;;;;;44.95;30.98;;;;;;;7.51;100.00;100977.66;5032479;28;20022;-77
2022/12/21 04:53:34;;;;;;;43.42;30.42;;;;;;;7.51;100.00;100965.41;5032852;28;20029;-77
2022/12/21 04:55:59;;;;;;;41.28;30.65;;;;;;;7.51;100.00;100964.56;5019015;28;20129;-80
2022/12/21 04:58:25;;;;;;;43.10;29.65;;;;;;;7.50;100.00;100966.34;5027956;28;20044;-79
2022/12/21 05:00:51;;;;;;;38.53;28.67;;;;;;;7.51;100.00;100968.03;5023635;28;20105;-77
2022/12/21 05:03:16;;;;;;;43.75;30.48;;;;;;;7.46;100.00;100956.16;5030989;28;20117;-77
2022/12/21 05:05:41;;;;;;;42.15;29.98;;;;;;;7.47;100.00;100963.91;5032881;28;20021;-77
2022/12/21 05:08:07;;;;;;;42.22;29.33;;;;;;;7.46;100.00;100961.38;5032630;28;20026;-77
2022/12/21 05:10:32;;;;;;;42.28;28.45;;;;;;;7.44;100.00;100969.34;5013509;28;20076;-79
2022/12/21 05:12:58;;;;;;;45.10;29.38;;;;;;;7.43;100.00;100975.50;5014718;28;20056;-79
2022/12/21 05:15:23;;;;;;;37.72;27.40;;;;;;;7.41;100.00;100966.91;5011906;28;20034;-79
2022/12/21 05:17:48;;;;;;;41.92;28.17;;;;;;;7.38;100.00;100967.09;5013692;28;20093;-79
2022/12/21 05:20:14;;;;;;;41.53;27.40;;;;;;;7.36;100.00;100963.72;5016404;28;20022;-79
2022/12/21 05:22:40;;;;;;;41.00;28.17;;;;;;;7.34;100.00;100964.75;5031334;28;20108;-79
2022/12/21 05:25:05;;;;;;;37.25;26.50;;;;;;;7.31;100.00;100965.75;5015445;28;20025;-79
2022/12/21 05:27:30;;;;;;;35.72;26.65;;;;;;;7.32;100.00;100956.13;5013557;28;20021;-79
2022/12/21 05:29:56;;;;;;;37.35;26.08;;;;;;;7.33;100.00;100948.19;5031097;28;20017;-80
2022/12/21 05:32:21;;;;;;;37.63;25.88;;;;;;;7.29;100.00;100957.16;5027128;28;20156;-79
2022/12/21 05:34:47;;;;;;;37.50;25.73;;;;;;;7.26;100.00;100957.34;5029284;28;20057;-79
2022/12/21 05:37:15;;;;;;;38.60;25.33;;;;;;;7.26;100.00;100962.56;5012175;28;20049;-78
2022/12/21 05:39:41;;;;;;;37.00;25.77;;;;;;;7.28;100.00;100955.47;5029865;28;20083;-79
2022/12/21 05:42:06;;;;;;;35.92;24.02;;;;;;;7.22;100.00;100955.84;5032400;28;20421;-79
2022/12/21 05:44:31;;;;;;;35.65;25.02;;;;;;;7.23;100.00;100954.91;5031341;28;20499;-79
2022/12/21 05:46:56;;;;;;;34.67;24.45;;;;;;;7.21;100.00;100954.16;5029592;28;20086;-79
2022/12/21 05:49:22;;;;;;;34.85;23.55;;;;;;;7.21;100.00;100956.78;5024451;28;20161;-79
2022/12/21 05:51:48;;;;;;;34.28;23.60;;;;;;;7.19;100.00;100956.84;5031023;28;20147;-78
2022/12/21 05:54:15;;;;;;;33.00;23.05;;;;;;;7.16;100.00;100956.16;5030675;28;20298;-78
2022/12/21 05:56:40;;;;;;;33.10;22.63;;;;;;;7.16;100.00;100950.94;5030697;28;20096;-78
2022/12/21 05:59:05;;;;;;;34.17;22.90;;;;;;;7.14;100.00;100951.03;5029333;28;20025;-78
2022/12/21 06:01:31;;;;;;;34.53;22.98;;;;;;;7.13;100.00;100946.72;5027112;28;20025;-78
2022/12/21 06:04:00;;;;;;;32.67;22.73;;;;;;;7.08;100.00;100942.69;5029145;28;20032;-78
2022/12/21 06:06:25;;;;;;;32.42;21.90;;;;;;;7.12;100.00;100939.81;5027921;28;20040;-77
2022/12/21 06:08:51;;;;;;;32.85;22.08;;;;;;;7.11;100.00;100942.50;5012983;28;20030;-77
2022/12/21 06:11:23;;;;;;;33.67;21.20;;;;;;;7.08;100.00;100942.69;5015796;28;20389;-78
2022/12/21 06:13:53;;;;;;;34.35;20.65;;;;;;;7.07;100.00;100936.63;5026659;28;20049;-77
2022/12/21 06:16:24;;;;;;;29.83;19.80;;;;;;;7.08;100.00;100938.31;5011334;28;20025;-78
2022/12/21 06:18:50;;;;;;;32.60;20.00;;;;;;;7.06;100.00;100945.41;5012273;28;20108;-78
2022/12/21 06:21:17;;;;;;;28.15;19.33;;;;;;;7.08;100.00;100947.94;5028521;28;20044;-77
2022/12/21 06:23:54;;;;;;;38.60;18.65;;;;;;;7.07;100.00;100946.25;5024007;28;20029;-78
2022/12/21 06:26:40;;;;;;;28.95;18.40;;;;;;;7.02;100.00;100950.91;5011160;28;20036;-78
2022/12/21 06:29:06;;;;;;;30.88;18.77;;;;;;;7.00;100.00;100947.53;5029068;28;20030;-78
2022/12/21 06:31:40;;;;;;;27.90;17.20;;;;;;;6.97;100.00;100945.09;5030294;28;20494;-78
2022/12/21 06:34:21;;;;;;;28.48;15.63;;;;;;;6.95;100.00;100952.19;5012469;28;20036;-77
2022/12/21 06:36:52;;;;;;;25.83;15.15;;;;;;;6.82;100.00;100942.44;5030088;28;20025;-78
2022/12/21 06:39:24;;;;;;;24.40;14.13;;;;;;;6.83;100.00;100948.50;5028711;28;20152;-78
2022/12/21 06:41:49;;;;;;;25.77;14.25;;;;;;;6.83;100.00;100945.88;5020055;28;20108;-78
2022/12/21 06:44:15;;;;;;;26.70;14.27;;;;;;;6.77;100.00;100947.06;5010685;28;20833;-78
2022/12/21 06:46:41;;;;;;;26.83;14.18;;;;;;;6.76;100.00;100940.13;5028365;28;20565;-78
2022/12/21 06:49:11;;;;;;;21.02;12.43;;;;;;;6.76;100.00;100947.97;5027745;28;20108;-78
2022/12/21 06:51:43;;;;;;;21.88;12.77;;;;;;;6.75;100.00;100948.91;5028845;28;20025;-78
2022/12/21 06:54:12;;;;;;;20.10;11.88;;;;;;;6.74;100.00;100952.47;5011913;28;20028;-78
2022/12/21 06:56:41;;;;;;;22.33;12.93;;;;;;;6.73;100.00;100958.63;5026661;28;20036;-78
2022/12/21 06:59:06;;;;;;;22.98;12.52;;;;;;;6.72;100.00;100967.38;5016997;28;20026;-77
2022/12/21 07:01:52;;;;;;;22.45;11.30;;;;;;;6.74;100.00;100976.00;5021504;28;20312;-77
2022/12/21 07:04:21;;;;;;;24.05;11.45;;;;;;;6.70;100.00;100965.78;5012820;28;20577;-77
2022/12/21 07:06:48;;;;;;;22.80;10.50;;;;;;;6.67;100.00;100969.41;5029381;28;20030;-77
2022/12/21 07:09:14;;;;;;;24.30;11.98;;;;;;;6.64;100.00;100964.38;5028502;28;20381;-77
2022/12/21 07:11:39;;;;;;;21.20;12.27;;;;;;;6.68;100.00;100954.56;5011310;28;20029;-77
2022/12/21 07:14:04;;;;;;;21.17;10.45;;;;;;;6.63;100.00;100960.06;5029096;28;20029;-77
2022/12/21 07:16:30;;;;;;;19.15;10.00;;;;;;;6.64;100.00;100961.75;5008459;28;20026;-78
2022/12/21 07:18:55;;;;;;;17.70;9.68;;;;;;;6.64;100.00;100964.38;5030112;28;20112;-77
2022/12/21 07:21:27;;;;;;;18.13;9.85;;;;;;;6.61;100.00;100969.78;5009410;28;20052;-77
2022/12/21 07:23:52;;;;;;;18.63;9.95;;;;;;;6.62;100.00;100974.06;5020626;28;20021;-77
2022/12/21 07:26:21;;;;;;;20.40;9.95;;;;;;;6.58;100.00;100975.16;5010511;28;20129;-77
2022/12/21 07:28:48;;;;;;;16.83;9.48;;;;;;;6.56;100.00;100972.63;5019317;28;20109;-77
2022/12/21 07:31:20;;;;;;;19.13;9.70;;;;;;;6.57;100.00;100978.72;5028611;28;20433;-78
2022/12/21 07:33:46;;;;;;;22.88;9.90;;;;;;;6.56;100.00;100987.47;5030647;28;20507;-77
2022/12/21 07:36:12;;;;;;;18.75;9.98;;;;;;;6.53;100.00;100983.25;5032772;28;20462;-77
2022/12/21 07:39:12;;;;;;;18.70;9.52;;;;;;;6.57;100.00;100994.41;5033073;28;20018;-77
2022/12/21 07:41:38;;;;;;;20.30;10.07;;;;;;;6.57;100.00;101002.25;5004963;28;20828;-78
2022/12/21 07:44:06;;;;;;;21.05;10.07;;;;;;;6.51;100.00;101005.19;5016159;28;20105;-77
2022/12/21 07:46:31;;;;;;;19.33;9.88;;;;;;;6.54;100.00;101010.25;5032337;28;20124;-77
2022/12/21 07:48:57;;;;;;;16.63;9.60;;;;;;;6.51;100.00;101013.03;5031927;28;20112;-77
2022/12/21 07:51:22;;;;;;;22.35;9.70;;;;;;;6.50;100.00;101016.56;5032528;28;20075;-78
2022/12/21 07:53:47;;;;;;;18.67;9.80;;;;;;;6.52;100.00;101020.78;5032849;28;20104;-78
2022/12/21 07:56:15;;;;;;;19.48;10.23;;;;;;;6.51;100.00;101026.94;5032431;28;20021;-78
2022/12/21 07:58:41;;;;;;;21.98;10.85;;;;;;;6.49;100.00;101030.56;5012604;28;20137;-78
2022/12/21 08:01:10;;;;;;;23.75;10.90;;;;;;;6.50;100.00;101034.88;5013872;28;20463;-78
2022/12/21 08:03:37;;;;;;;20.27;11.18;;;;;;;6.50;100.00;101029.66;5013121;28;20116;-78
2022/12/21 08:06:06;;;;;;;23.90;12.15;;;;;;;6.49;100.00;101030.56;5012408;28;20445;-78
2022/12/21 08:08:33;;;;;;;27.63;12.55;;;;;;;6.49;100.00;101023.56;5023496;28;20033;-78
2022/12/21 08:11:04;;;;;;;22.63;12.35;;;;;;;6.52;100.00;101012.94;5015103;28;20390;-78
2022/12/21 08:13:30;;;;;;;26.08;12.70;;;;;;;6.52;100.00;101006.88;5031601;28;20025;-79
2022/12/21 08:16:04;;;;;;;30.42;13.85;;;;;;;6.52;100.00;101007.72;5033066;28;20363;-78
2022/12/21 08:18:30;;;;;;;26.80;13.85;;;;;;;6.52;100.00;101012.09;5011516;28;20394;-77
2022/12/21 08:21:12;;;;;;;26.50;14.35;;;;;;;6.56;100.00;101016.25;5007378;28;20056;-77
2022/12/21 08:23:47;;;;;;;30.27;15.13;;;;;;;6.57;100.00;101020.53;5011536;28;20049;-77
2022/12/21 08:26:13;;;;;;;27.02;15.10;;;;;;;6.61;100.00;101032.50;5031857;28;20025;-77
2022/12/21 08:28:47;;;;;;;35.00;15.65;;;;;;;6.65;100.00;101018.34;5029735;28;20633;-78
2022/12/21 08:31:21;;;;;;;30.75;15.95;;;;;;;6.66;100.00;101024.41;5031493;28;20045;-77
2022/12/21 08:33:47;;;;;;;28.08;16.27;;;;;;;6.69;100.00;101022.47;5032187;28;20559;-77
2022/12/21 08:36:31;;;;;;;32.47;17.58;;;;;;;6.73;100.00;101026.59;5031693;28;20060;-78
2022/12/21 08:38:56;;;;;;;33.15;17.60;;;;;;;6.74;100.00;101025.66;5025711;28;20396;-77
2022/12/21 08:41:22;;;;;;;31.73;17.67;;;;;;;6.77;100.00;101020.28;5020861;28;20524;-77
2022/12/21 08:43:47;;;;;;;34.42;18.23;;;;;;;6.80;100.00;101020.09;5013615;28;20030;-78
2022/12/21 08:46:13;;;;;;;33.20;18.55;;;;;;;6.83;100.00;101022.56;5028960;28;20417;-78
2022/12/21 08:48:39;;;;;;;33.63;18.48;;;;;;;6.86;100.00;101026.78;5014110;28;20069;-79
2022/12/21 08:51:07;;;;;;;32.63;19.90;;;;;;;6.87;100.00;101034.53;5020476;28;20107;-77
2022/12/21 08:53:33;;;;;;;38.17;19.73;;;;;;;6.89;100.00;101029.22;5043480;28;20488;-77
2022/12/21 08:55:58;;;;;;;37.03;21.40;;;;;;;6.89;100.00;101027.47;5040660;28;20102;-77
2022/12/21 08:58:24;;;;;;;42.83;23.02;;;;;;;6.93;100.00;101024.66;5031130;28;20057;-80
2022/12/21 09:00:53;;;;;;;43.83;24.80;;;;;;;6.95;100.00;101031.50;5032158;28;20029;-76
2022/12/21 09:03:22;;;;;;;47.88;26.17;;;;;;;6.98;100.00;101036.56;5029908;28;20040;-79
2022/12/21 09:05:54;;;;;;;38.88;24.58;;;;;;;7.00;100.00;101029.47;5028578;28;20030;-79
2022/12/21 09:08:19;;;;;;;42.35;26.35;;;;;;;7.02;100.00;101024.16;5012814;28;20029;-78
2022/12/21 09:10:44;;;;;;;41.97;25.73;;;;;;;7.04;100.00;101020.50;5029512;28;20378;-78
2022/12/21 09:13:09;;;;;;;43.28;26.50;;;;;;;7.08;100.00;101018.56;5013718;28;20120;-78
2022/12/21 09:15:41;;;;;;;44.35;26.55;;;;;;;7.12;100.00;101020.06;5012527;28;20529;-77
2022/12/21 09:18:30;;;;;;;43.05;25.65;;;;;;;7.13;100.00;101013.91;5011336;28;20025;-78
2022/12/21 09:20:59;;;;;;;43.13;25.67;;;;;;;7.15;100.00;101009.44;5030061;28;20072;-77
2022/12/21 09:23:24;;;;;;;46.80;25.48;;;;;;;7.20;100.00;101012.63;5025319;28;20443;-77
2022/12/21 09:25:50;;;;;;;45.63;26.42;;;;;;;7.23;100.00;101015.09;5028549;28;20041;-77
2022/12/21 09:28:20;;;;;;;45.85;25.73;;;;;;;7.25;100.00;101021.09;5028924;28;20541;-77
2022/12/21 09:30:47;;;;;;;47.05;25.73;;;;;;;7.30;100.00;101019.03;5029748;28;20053;-77
2022/12/21 09:33:13;;;;;;;45.55;24.55;;;;;;;7.33;100.00;101023.25;5013348;28;20044;-77
2022/12/21 09:35:38;;;;;;;42.97;23.05;;;;;;;7.35;100.00;101030.09;5029610;28;20029;-78
2022/12/21 09:38:04;;;;;;;37.92;24.15;;;;;;;7.38;100.00;101023.81;5020129;28;20105;-78
2022/12/21 09:40:32;;;;;;;43.10;24.20;;;;;;;7.45;100.00;101036.47;5012144;28;20478;-78
2022/12/21 09:43:24;;;;;;;37.90;24.52;;;;;;;7.53;100.00;101042.09;5014892;28;20048;-77
2022/12/21 09:46:05;;;;;;;40.28;23.70;;;;;;;7.57;100.00;101047.16;5028015;28;20033;-79
2022/12/21 09:48:38;;;;;;;41.22;21.73;;;;;;;7.57;100.00;101045.38;5028397;28;20033;-79
2022/12/21 09:51:19;;;;;;;39.53;22.40;;;;;;;7.58;100.00;101051.44;5025335;28;20424;-76
2022/12/21 09:53:51;;;;;;;37.10;21.80;;;;;;;7.59;100.00;101053.13;5031351;28;20039;-79
2022/12/21 09:56:38;;;;;;;35.65;21.00;;;;;;;7.62;100.00;101047.75;5029015;28;20040;-79
2022/12/21 09:59:08;;;;;;;40.50;21.30;;;;;;;7.60;100.00;101044.34;5028735;28;20036;-79
2022/12/21 10:05:30;;;;;;;35.08;20.90;;;;;;;7.71;100.00;101045.44;4969944;28;20049;-77
2022/12/21 10:08:26;;;;;;;35.05;20.05;;;;;;;7.70;100.00;101056.00;5025651;28;20432;-77
2022/12/21 10:11:03;;;;;;;33.85;20.23;;;;;;;7.73;100.00;101054.03;5029979;28;20037;-77
2022/12/21 10:13:58;;;;;;;35.97;18.13;;;;;;;7.73;100.00;101047.97;5029188;28;20053;-77
2022/12/21 10:16:35;;;;;;;30.75;18.88;;;;;;;7.69;100.00;101044.69;5010437;28;20034;-77
2022/12/21 10:19:13;;;;;;;35.38;17.95;;;;;;;7.70;100.00;101050.75;5010667;28;20057;-76
2022/12/21 10:21:51;;;;;;;33.38;17.80;;;;;;;7.75;100.00;101065.28;5023818;28;20029;-77
2022/12/21 10:24:24;;;;;;;32.83;18.27;;;;;;;7.75;100.00;101057.41;5026683;28;20031;-77
2022/12/21 10:26:58;;;;;;;34.50;18.23;;;;;;;7.74;100.00;101053.09;5008477;28;20025;-77
2022/12/21 10:29:33;;;;;;;31.63;17.58;;;;;;;7.76;100.00;101056.47;5028651;28;20037;-77
2022/12/21 10:32:00;;;;;;;32.65;18.05;;;;;;;7.79;100.00;101048.44;5012190;28;20048;-77
2022/12/21 10:34:43;;;;;;;31.02;17.48;;;;;;;7.81;100.00;101049.19;5027975;28;20108;-77
2022/12/21 10:37:31;;;;;;;;;;;;;;;7.97;100.00;101046.47;5029215;28;20022;-78
2022/12/21 10:40:03;;;;;;;27.73;17.20;;;;;;;7.90;100.00;101032.06;4987217;28;19945;-77
2022/12/21 10:42:37;;;;;;;34.50;18.73;;;;;;;7.93;100.00;101031.88;5011426;28;20405;-76
2022/12/21 10:45:13;;;;;;;32.55;17.65;;;;;;;7.92;100.00;101024.13;5011871;28;20478;-79
2022/12/21 10:47:40;;;;;;;30.27;16.10;;;;;;;7.91;100.00;101028.50;5011394;28;20412;-79
2022/12/21 10:50:17;;;;;;;32.42;16.55;;;;;;;7.92;100.00;101011.88;5028263;28;20120;-79
2022/12/21 10:52:51;;;;;;;31.33;17.45;;;;;;;7.91;100.00;101018.03;5009102;28;20165;-77
2022/12/21 10:55:19;;;;;;;28.38;17.23;;;;;;;7.92;100.00;101018.88;5028543;28;20032;-77
2022/12/21 10:57:46;;;;;;;28.88;16.50;;;;;;;7.93;100.00;101004.84;5015222;28;20148;-77
2022/12/21 11:00:31;;;;;;;41.75;18.50;;;;;;;7.98;100.00;101008.03;5020499;28;20025;-76
2022/12/21 11:03:23;;;;;;;31.60;17.95;;;;;;;7.97;100.00;101003.72;5025501;28;20504;-76
2022/12/21 11:05:56;;;;;;;28.10;17.40;;;;;;;7.96;100.00;101000.25;5009688;28;20550;-77
2022/12/21 11:08:25;;;;;;;27.92;18.27;;;;;;;7.96;100.00;101002.88;5026918;28;20038;-78
2022/12/21 11:10:56;;;;;;;28.85;17.50;;;;;;;7.93;100.00;101000.44;5027624;28;20517;-77
2022/12/21 11:13:39;;;;;;;27.60;17.33;;;;;;;7.94;100.00;101001.28;5010059;28;20053;-77
2022/12/21 11:16:14;;;;;;;30.70;17.73;;;;;;;7.97;100.00;100999.31;5029335;28;20489;-77
2022/12/21 11:19:10;;;;;;;30.67;17.40;;;;;;;7.99;100.00;100989.59;5010441;28;20505;-77
2022/12/21 11:22:12;;;;;;;29.15;18.08;;;;;;;7.99;100.00;100994.84;5028304;28;20631;-77
2022/12/21 11:24:41;;;;;;;33.97;18.30;;;;;;;7.97;100.00;101001.09;5025115;28;20502;-77
2022/12/21 11:27:27;;;;;;;32.00;18.45;;;;;;;7.99;100.00;101001.84;5028112;28;20021;-77
2022/12/21 11:30:00;;;;;;;31.20;18.23;;;;;;;7.99;100.00;101000.06;5024311;28;20034;-76
2022/12/21 11:32:42;;;;;;;34.72;18.58;;;;;;;8.00;100.00;101000.91;5009295;28;20074;-77
2022/12/21 11:35:20;;;;;;;32.03;19.30;;;;;;;8.01;100.00;100998.22;5029222;28;20117;-77
2022/12/21 11:37:56;;;;;;;33.42;18.27;;;;;;;8.03;100.00;101006.84;5011442;28;20056;-77
2022/12/21 11:40:27;;;;;;;30.38;19.15;;;;;;;8.00;100.00;101001.75;5011368;28;20401;-77
2022/12/21 11:42:52;;;;;;;30.30;18.35;;;;;;;8.03;100.00;100985.88;5020390;28;20036;-76
2022/12/21 11:46:00;;;;;;;28.20;18.02;;;;;;;8.08;100.00;100988.22;5007817;28;20033;-76